Time;durP1;ratioP1;P1;durP2;ratioP2;P2;SDS_P1;SDS_P2;PMS_P1;PMS_P2;Temp;Humidity;BMP_temperature;BMP_pressure;BME280_temperature;BME280_humidity;BME280_pressure;Samples;Min_cycle;Max_cycle;Signal;HPM_P1;HPM_P2
2021/05/24 02:10:52;;;;;;;8.73;3.90;;;6.50;81.10;;;;;;4887894;29;20187;-88
2021/05/24 02:16:55;;;;;;;8.65;3.83;;;6.40;81.20;;;;;;4900148;29;20035;-87
2021/05/24 02:47:29;;;;;;;9.30;4.03;;;6.30;81.50;;;;;;4841076;29;20115;-88
2021/05/24 02:50:34;;;;;;;10.35;4.55;;;6.20;81.30;;;;;;4821021;29;20121;-88
2021/05/24 04:37:31;;;;;;;10.00;4.82;;;7.80;84.00;;;;;;4845269;29;20414;-88
2021/05/24 04:43:33;;;;;;;9.73;4.88;;;8.00;84.00;;;;;;4825033;29;20100;-88
2021/05/24 06:03:51;;;;;;;3.72;1.80;;;11.60;85.80;;;;;;4913781;29;20068;-84
2021/05/24 06:12:25;;;;;;;3.22;1.90;;;12.30;86.30;;;;;;4986285;23;20051;-87
2021/05/24 06:18:13;;;;;;;2.83;1.58;;;12.60;85.70;;;;;;4918524;29;20553;-85
2021/05/24 06:24:02;;;;;;;2.00;1.50;;;13.00;85.90;;;;;;4918568;29;20092;-85
2021/05/24 06:29:50;;;;;;;2.10;1.40;;;13.30;85.80;;;;;;4917980;29;20047;-85
2021/05/24 06:59:26;;;;;;;2.72;1.20;;;14.90;86.30;;;;;;4823140;29;20494;-85
2021/05/24 07:05:14;;;;;;;1.60;1.38;;;15.30;86.10;;;;;;4823144;29;20053;-84
2021/05/24 07:11:02;;;;;;;1.95;1.30;;;15.70;86.10;;;;;;4841236;29;20118;-84
2021/05/24 07:16:50;;;;;;;2.33;1.15;;;16.00;85.80;;;;;;4841306;29;20032;-84
2021/05/24 07:22:39;;;;;;;1.05;1.00;;;16.30;86.10;;;;;;4867513;29;20425;-84
2021/05/24 07:28:28;;;;;;;1.25;0.98;;;16.60;85.30;;;;;;4898596;29;20052;-84
2021/05/24 07:34:17;;;;;;;2.85;1.38;;;16.80;85.60;;;;;;4898516;29;20032;-84
2021/05/24 07:40:07;;;;;;;1.30;1.20;;;17.10;85.50;;;;;;4898480;29;20039;-84
2021/05/24 07:45:56;;;;;;;1.92;1.52;;;17.40;85.40;;;;;;4898878;29;20092;-85
2021/05/24 07:51:45;;;;;;;0.85;0.85;;;17.60;85.30;;;;;;4902240;29;20035;-84
2021/05/24 07:57:36;;;;;;;1.67;1.10;;;17.60;83.70;;;;;;4906001;29;20397;-83
2021/05/24 08:03:25;;;;;;;1.52;1.08;;;17.50;84.20;;;;;;4906963;29;20119;-84
2021/05/24 08:09:13;;;;;;;2.28;1.10;;;17.40;84.10;;;;;;4905707;29;20036;-83
2021/05/24 08:18:51;;;;;;;1.30;1.13;;;17.70;84.90;;;;;;4905590;29;20141;-83
2021/05/24 08:24:40;;;;;;;1.48;1.05;;;17.80;84.30;;;;;;4905037;29;20039;-83
2021/05/24 08:30:29;;;;;;;1.23;0.90;;;17.80;84.90;;;;;;4904363;29;20051;-84
2021/05/24 08:36:17;;;;;;;5.50;2.50;;;17.90;83.70;;;;;;4901367;29;20046;-85
2021/05/24 08:42:07;;;;;;;0.90;0.90;;;17.80;84.10;;;;;;4901401;29;20154;-84
2021/05/24 08:47:56;;;;;;;1.30;1.10;;;18.10;85.50;;;;;;4900941;29;20051;-84
2021/05/24 08:53:45;;;;;;;1.10;1.00;;;18.70;85.90;;;;;;4900955;29;20031;-84
2021/05/24 08:59:34;;;;;;;1.15;0.85;;;19.20;85.80;;;;;;4900463;29;20096;-84
2021/05/24 09:05:31;;;;;;;3.30;1.70;;;19.70;85.90;;;;;;4900561;29;20031;-84
2021/05/24 09:11:27;;;;;;;1.00;0.73;;;20.30;86.30;;;;;;4900825;29;20093;-84
2021/05/24 09:21:10;;;;;;;1.80;1.10;;;21.00;84.40;;;;;;4900683;29;20054;-84
2021/05/24 09:27:01;;;;;;;1.08;0.90;;;21.40;84.40;;;;;;4900292;29;20136;-84
2021/05/24 09:32:49;;;;;;;2.13;1.30;;;21.70;84.20;;;;;;4900411;29;20099;-84
2021/05/24 09:38:47;;;;;;;2.20;0.93;;;22.00;83.30;;;;;;4900077;29;20080;-84
2021/05/24 09:44:42;;;;;;;1.70;1.00;;;22.00;83.20;;;;;;4900144;29;20390;-84
2021/05/24 09:50:32;;;;;;;1.23;0.80;;;22.20;83.70;;;;;;4899860;29;20043;-84
2021/05/24 09:56:20;;;;;;;2.25;1.20;;;22.80;83.90;;;;;;4899723;29;20068;-84
2021/05/24 10:02:10;;;;;;;3.63;1.40;;;23.50;84.70;;;;;;4899661;29;20073;-84
2021/05/24 10:07:59;;;;;;;1.95;1.40;;;23.90;83.10;;;;;;4899540;29;20086;-84
2021/05/24 10:13:48;;;;;;;5.82;2.63;;;23.90;82.10;;;;;;4899602;29;20390;-84
2021/05/24 10:23:37;;;;;;;1.30;1.17;;;24.50;83.50;;;;;;4901978;29;20072;-83
2021/05/24 10:29:29;;;;;;;2.45;1.40;;;24.80;81.20;;;;;;4901554;29;20036;-83
2021/05/24 10:35:32;;;;;;;1.30;1.00;;;25.00;81.10;;;;;;4901657;29;20061;-82
2021/05/24 10:41:24;;;;;;;1.77;0.88;;;25.30;81.30;;;;;;4903106;29;20541;-86
2021/05/24 10:47:18;;;;;;;3.88;1.13;;;25.40;80.90;;;;;;4901984;29;20138;-83
2021/05/24 10:53:10;;;;;;;1.17;1.00;;;25.40;79.80;;;;;;4899102;29;20035;-84
2021/05/24 10:58:58;;;;;;;1.13;0.88;;;25.40;79.10;;;;;;4898703;29;20035;-84
2021/05/24 11:05:16;;;;;;;1.52;0.93;;;24.90;78.20;;;;;;4898855;29;20032;-84
2021/05/24 11:11:19;;;;;;;1.48;0.93;;;24.80;79.10;;;;;;4898548;29;20031;-84
2021/05/24 11:17:07;;;;;;;1.08;0.93;;;25.70;82.30;;;;;;4898727;29;20039;-84
2021/05/24 11:27:16;;;;;;;1.55;0.80;;;26.60;79.30;;;;;;4898422;29;20059;-85
2021/05/24 11:39:54;;;;;;;4.25;1.00;;;26.30;77.80;;;;;;4898512;29;20445;-86
2021/05/24 11:45:50;;;;;;;1.13;0.90;;;26.50;79.10;;;;;;4898175;29;20059;-87
2021/05/24 11:51:40;;;;;;;2.38;1.00;;;26.40;77.40;;;;;;4898203;29;20045;-83
2021/05/24 11:57:39;;;;;;;1.30;0.95;;;26.10;76.30;;;;;;4898334;29;20024;-83
2021/05/24 12:03:28;;;;;;;1.88;0.85;;;26.10;77.40;;;;;;4898349;29;20382;-85
2021/05/24 12:09:33;;;;;;;1.63;0.95;;;26.00;77.10;;;;;;4898170;29;20035;-84
2021/05/24 12:15:22;;;;;;;0.73;0.73;;;26.20;78.10;;;;;;4898371;29;20032;-84
2021/05/24 12:21:10;;;;;;;0.90;0.90;;;27.20;80.80;;;;;;4898199;29;20039;-85
2021/05/24 12:26:59;;;;;;;1.77;1.20;;;28.80;82.80;;;;;;4897963;29;20047;-84
2021/05/24 12:32:53;;;;;;;5.35;3.00;;;31.30;82.90;;;;;;4899536;29;20496;-84
2021/05/24 12:38:45;;;;;;;0.88;0.88;;;32.20;79.00;;;;;;4901166;29;20513;-85
2021/05/24 12:44:38;;;;;;;1.83;1.00;;;31.70;74.80;;;;;;4901259;29;20390;-85
2021/05/24 12:50:30;;;;;;;0.88;0.82;;;30.90;73.30;;;;;;4900830;29;20040;-85
2021/05/24 12:56:18;;;;;;;1.15;1.00;;;29.80;72.80;;;;;;4901084;29;20038;-85
2021/05/24 13:02:06;;;;;;;1.88;0.95;;;30.10;77.80;;;;;;4900701;29;20035;-85
2021/05/24 13:07:57;;;;;;;2.08;1.00;;;31.20;76.70;;;;;;4900554;29;20051;-86
2021/05/24 13:13:58;;;;;;;1.08;0.98;;;32.40;77.20;;;;;;4900784;29;20492;-83
2021/05/24 13:27:04;;;;;;;2.13;0.90;;;31.70;72.30;;;;;;4879740;29;20087;-85
2021/05/24 13:32:52;;;;;;;0.80;0.80;;;30.90;70.80;;;;;;4879729;29;20028;-85
2021/05/24 13:38:40;;;;;;;0.70;0.70;;;30.10;68.80;;;;;;4879586;29;20122;-83
2021/05/24 13:44:28;;;;;;;0.80;0.80;;;28.80;67.60;;;;;;4878799;29;20092;-85
2021/05/24 13:50:17;;;;;;;0.70;0.70;;;28.20;70.00;;;;;;4884775;29;20120;-85
2021/05/24 13:56:11;;;;;;;1.13;0.98;;;27.80;67.90;;;;;;4899686;29;20036;-86
2021/05/24 14:02:02;;;;;;;1.30;0.68;;;26.90;68.60;;;;;;4899852;29;20043;-86
2021/05/24 14:07:52;;;;;;;0.98;0.93;;;26.40;68.70;;;;;;4899431;29;20047;-87
2021/05/24 14:13:41;;;;;;;1.30;0.95;;;26.00;68.90;;;;;;4899714;29;20417;-85
2021/05/24 14:19:30;;;;;;;2.45;1.20;;;25.50;68.80;;;;;;4899364;29;20039;-84
2021/05/24 14:29:21;;;;;;;1.45;1.05;;;24.80;68.60;;;;;;4899750;29;20079;-83
2021/05/24 14:35:10;;;;;;;1.13;1.02;;;24.50;68.60;;;;;;4899346;29;20036;-84
2021/05/24 14:40:59;;;;;;;2.58;1.23;;;24.40;68.60;;;;;;4899202;29;20040;-84
2021/05/24 14:46:48;;;;;;;2.88;0.95;;;23.90;67.20;;;;;;4898965;29;20052;-84
2021/05/24 14:52:37;;;;;;;1.50;0.93;;;23.30;67.60;;;;;;4899097;29;20043;-84
2021/05/24 14:58:27;;;;;;;2.45;1.20;;;23.00;67.90;;;;;;4899068;29;20381;-84
2021/05/24 15:04:15;;;;;;;5.72;2.65;;;22.60;66.90;;;;;;4898628;29;20067;-84
2021/05/24 15:10:05;;;;;;;5.30;2.75;;;22.50;68.30;;;;;;4898596;29;20389;-85
2021/05/24 15:15:53;;;;;;;2.20;1.30;;;22.20;66.40;;;;;;4898502;29;20511;-84
2021/05/24 15:21:41;;;;;;;3.20;1.70;;;21.90;66.80;;;;;;4898659;29;20240;-84
2021/05/24 15:31:28;;;;;;;9.15;3.40;;;21.70;66.90;;;;;;4898752;29;20052;-84
2021/05/24 15:37:16;;;;;;;1.42;1.20;;;21.40;66.60;;;;;;4898419;29;20110;-84
2021/05/24 15:43:05;;;;;;;1.85;1.25;;;21.10;66.30;;;;;;4898531;29;20446;-84
2021/05/24 15:48:54;;;;;;;2.83;1.33;;;21.00;67.40;;;;;;4898271;29;20546;-84
2021/05/24 15:54:42;;;;;;;4.97;1.95;;;20.80;66.80;;;;;;4898424;29;20081;-83
2021/05/24 16:00:31;;;;;;;3.42;1.70;;;20.30;66.40;;;;;;4898511;29;20095;-84
2021/05/24 16:06:20;;;;;;;8.23;3.15;;;19.80;66.60;;;;;;4898217;29;20108;-84
2021/05/24 16:12:08;;;;;;;3.08;1.90;;;19.70;67.30;;;;;;4901891;29;20040;-84
2021/05/24 16:17:59;;;;;;;5.93;2.28;;;19.50;67.50;;;;;;4901619;29;20096;-84
2021/05/24 16:24:01;;;;;;;3.55;1.77;;;19.40;67.50;;;;;;4901340;29;20035;-84
2021/05/24 16:33:51;;;;;;;2.05;1.30;;;18.60;66.90;;;;;;4901480;29;20060;-84
2021/05/24 16:39:40;;;;;;;2.25;1.35;;;18.50;68.30;;;;;;4901238;29;20108;-85
2021/05/24 16:45:29;;;;;;;3.28;1.50;;;18.60;68.60;;;;;;4900882;29;20084;-86
2021/05/24 16:51:18;;;;;;;4.38;1.98;;;18.60;68.70;;;;;;4900749;29;20080;-85
2021/05/24 16:57:06;;;;;;;2.15;1.40;;;18.70;69.10;;;;;;4901158;29;20036;-86
2021/05/24 17:02:55;;;;;;;1.48;1.23;;;18.80;69.30;;;;;;4900702;29;20071;-86
2021/05/24 17:08:46;;;;;;;1.73;1.50;;;18.60;68.80;;;;;;4901202;29;20060;-85
2021/05/24 17:14:35;;;;;;;2.42;1.50;;;18.60;69.10;;;;;;4901441;29;20080;-86
2021/05/24 17:20:24;;;;;;;2.08;1.55;;;18.50;69.10;;;;;;4900026;29;20511;-84
2021/05/24 17:26:13;;;;;;;3.08;1.70;;;18.40;69.60;;;;;;4900545;29;20071;-85
2021/05/24 17:36:03;;;;;;;3.95;1.90;;;18.20;69.50;;;;;;4900555;29;20116;-85
2021/05/24 17:41:52;;;;;;;7.30;3.25;;;18.00;69.80;;;;;;4900323;29;20031;-85
2021/05/24 17:47:42;;;;;;;4.30;1.98;;;18.00;70.20;;;;;;4899949;29;20052;-85
2021/05/24 17:53:29;;;;;;;3.45;1.60;;;17.90;70.20;;;;;;4900428;29;20521;-84
2021/05/24 17:59:18;;;;;;;3.20;1.55;;;17.90;70.50;;;;;;4900211;29;20118;-85
2021/05/24 18:05:07;;;;;;;2.78;1.42;;;17.70;70.20;;;;;;4900126;29;20035;-85
2021/05/24 18:10:56;;;;;;;3.42;1.77;;;17.60;70.60;;;;;;4899817;29;20104;-85
2021/05/24 18:16:45;;;;;;;2.95;1.70;;;17.50;70.60;;;;;;4899682;29;20108;-84
2021/05/24 18:22:34;;;;;;;3.50;1.70;;;17.40;70.60;;;;;;4899315;29;20036;-87
2021/05/24 18:28:39;;;;;;;2.65;1.50;;;17.40;71.00;;;;;;4899120;29;20533;-88
2021/05/24 18:38:33;;;;;;;3.40;1.55;;;17.20;71.10;;;;;;4899265;29;20067;-87
2021/05/24 18:44:22;;;;;;;2.10;1.40;;;17.10;71.00;;;;;;4898952;29;20032;-84
2021/05/24 18:50:09;;;;;;;5.13;2.20;;;17.00;71.10;;;;;;4899080;29;20044;-86
2021/05/24 18:55:58;;;;;;;2.15;1.60;;;17.00;71.20;;;;;;4898761;29;20104;-87
2021/05/24 19:01:52;;;;;;;2.10;1.48;;;16.90;71.30;;;;;;4898796;29;20499;-86
2021/05/24 19:24:51;;;;;;;1.90;1.48;;;16.50;71.50;;;;;;4843207;29;20048;-86
2021/05/24 19:30:40;;;;;;;4.28;1.90;;;16.30;71.40;;;;;;4841375;29;20125;-86
2021/05/24 19:36:29;;;;;;;2.80;1.60;;;16.30;71.60;;;;;;4840884;29;20535;-85
2021/05/24 19:42:18;;;;;;;4.72;1.50;;;16.30;71.90;;;;;;4842146;29;20109;-86
2021/05/24 20:28:19;;;;;;;3.80;1.70;;;15.70;72.50;;;;;;4920205;29;20548;-86
2021/05/24 20:34:08;;;;;;;3.88;1.98;;;15.70;72.70;;;;;;4920076;29;20023;-84
2021/05/24 20:39:56;;;;;;;2.53;1.52;;;15.60;72.90;;;;;;4920292;29;20076;-84
2021/05/24 20:45:46;;;;;;;3.58;1.45;;;15.70;73.10;;;;;;4920171;29;20039;-84
2021/05/24 20:51:34;;;;;;;3.30;1.70;;;15.70;73.20;;;;;;4920152;29;20091;-84
2021/05/24 20:57:24;;;;;;;2.53;1.55;;;15.70;73.10;;;;;;4919767;29;20023;-84
2021/05/24 21:03:13;;;;;;;3.70;1.50;;;15.60;73.10;;;;;;4919652;29;20074;-84
2021/05/24 21:09:06;;;;;;;2.20;1.50;;;15.50;73.30;;;;;;4919792;29;20047;-85
2021/05/24 21:14:54;;;;;;;2.75;1.50;;;15.50;73.40;;;;;;4919695;29;20139;-85
2021/05/24 21:20:44;;;;;;;7.07;1.75;;;15.50;73.50;;;;;;4919614;29;20056;-84
2021/05/24 21:26:32;;;;;;;4.93;1.83;;;15.50;73.50;;;;;;4919143;29;20504;-85
2021/05/24 21:32:25;;;;;;;4.15;1.77;;;15.40;73.70;;;;;;4919080;29;20035;-85
2021/05/24 21:38:15;;;;;;;4.68;1.75;;;15.40;73.50;;;;;;4919340;29;20043;-85
2021/05/24 21:44:04;;;;;;;7.00;2.00;;;15.30;73.70;;;;;;4919148;29;20062;-85
2021/05/24 21:49:53;;;;;;;3.83;1.83;;;15.30;74.00;;;;;;4918828;29;20030;-85
2021/05/24 21:55:42;;;;;;;2.10;1.50;;;15.10;73.60;;;;;;4918954;29;20404;-85
2021/05/24 22:01:31;;;;;;;7.50;2.42;;;15.00;73.70;;;;;;4918548;29;20500;-86
2021/05/24 22:07:21;;;;;;;4.45;2.00;;;15.00;74.10;;;;;;4918474;29;20552;-86
2021/05/24 22:13:12;;;;;;;5.15;2.00;;;14.80;74.00;;;;;;4919088;29;20064;-86
2021/05/24 22:19:01;;;;;;;4.32;1.80;;;14.80;74.20;;;;;;4918283;29;20492;-86
2021/05/24 22:28:37;;;;;;;4.85;1.90;;;14.70;74.20;;;;;;4918179;29;20126;-85
2021/05/24 22:34:26;;;;;;;5.75;2.10;;;14.60;74.60;;;;;;4918215;29;20091;-85
2021/05/24 22:40:16;;;;;;;3.10;1.73;;;14.50;74.50;;;;;;4918263;29;20380;-85
2021/05/24 22:46:04;;;;;;;4.38;1.92;;;14.40;74.70;;;;;;4917782;29;20027;-85
2021/05/24 22:51:52;;;;;;;2.22;1.52;;;14.40;74.70;;;;;;4917950;29;20091;-86
2021/05/24 22:57:41;;;;;;;3.35;1.27;;;14.20;74.50;;;;;;4917988;29;20039;-86
2021/05/24 23:03:37;;;;;;;3.58;1.80;;;14.00;74.60;;;;;;4917669;29;20035;-85
2021/05/24 23:09:26;;;;;;;4.63;1.40;;;13.80;74.30;;;;;;4917461;29;20433;-85
2021/05/24 23:15:17;;;;;;;2.28;1.27;;;12.90;71.70;;;;;;4917619;29;20472;-85
2021/05/24 23:21:06;;;;;;;2.63;1.30;;;12.10;73.10;;;;;;4917689;29;20091;-84
2021/05/24 23:30:50;;;;;;;4.03;1.50;;;11.50;75.00;;;;;;4917443;29;20038;-84
2021/05/24 23:36:40;;;;;;;2.40;1.33;;;11.20;74.90;;;;;;4917263;29;20079;-84
2021/05/24 23:42:28;;;;;;;4.38;1.50;;;10.90;75.90;;;;;;4917286;29;20047;-86
2021/05/24 23:48:16;;;;;;;2.53;1.30;;;10.70;77.10;;;;;;4917076;29;20531;-85
2021/05/24 23:54:05;;;;;;;2.30;1.48;;;10.70;78.40;;;;;;4917358;29;20577;-86
2021/05/24 23:59:53;;;;;;;2.40;1.42;;;10.70;79.80;;;;;;4917298;29;20485;-85
